createdAt,value
2022-08-20T00:01:48.070Z,18.40
2022-08-20T00:04:16.168Z,18.40
2022-08-20T00:06:45.370Z,18.40
2022-08-20T00:09:13.335Z,18.50
2022-08-20T00:11:41.341Z,18.50
2022-08-20T00:14:09.330Z,18.50
2022-08-20T00:16:39.628Z,18.40
2022-08-20T00:19:09.611Z,18.50
2022-08-20T00:21:37.915Z,18.40
2022-08-20T00:24:06.961Z,18.40
2022-08-20T00:26:34.878Z,18.40
2022-08-20T00:29:04.858Z,18.40
2022-08-20T00:31:33.126Z,18.30
2022-08-20T00:34:02.395Z,18.30
2022-08-20T00:36:32.516Z,18.30
2022-08-20T00:39:01.144Z,18.40
2022-08-20T00:41:31.004Z,18.30
2022-08-20T00:44:09.372Z,18.40
2022-08-20T00:46:38.486Z,18.40
2022-08-20T00:49:10.091Z,18.40
2022-08-20T00:51:41.921Z,18.30
2022-08-20T00:54:14.460Z,18.40
2022-08-20T00:56:44.024Z,18.40
2022-08-20T00:59:16.421Z,18.30
2022-08-20T01:01:56.204Z,18.30
2022-08-20T01:04:27.445Z,18.30
2022-08-20T01:06:55.643Z,18.30
2022-08-20T01:09:50.231Z,18.30
2022-08-20T01:12:13.764Z,18.30
2022-08-20T01:14:46.186Z,18.30
2022-08-20T01:17:17.767Z,18.30
2022-08-20T01:19:51.516Z,18.30
2022-08-20T01:22:46.611Z,18.30
2022-08-20T01:25:21.441Z,18.20
2022-08-20T01:27:56.024Z,18.20
2022-08-20T01:30:25.979Z,18.20
2022-08-20T01:32:53.994Z,18.20
2022-08-20T01:35:23.497Z,18.20
2022-08-20T01:37:51.648Z,18.20
2022-08-20T01:40:36.924Z,18.20
2022-08-20T01:43:08.438Z,18.20
2022-08-20T01:45:40.193Z,18.20
2022-08-20T01:48:09.626Z,18.10
2022-08-20T01:50:49.218Z,18.10
2022-08-20T01:53:21.504Z,18.10
2022-08-20T01:55:49.495Z,18.10
2022-08-20T01:58:18.871Z,18.10
2022-08-20T02:00:47.035Z,18.10
2022-08-20T02:03:15.041Z,18.10
2022-08-20T02:05:43.233Z,18.10
2022-08-20T02:08:11.311Z,18.10
2022-08-20T02:10:39.340Z,18.00
2022-08-20T02:13:09.972Z,18.00
2022-08-20T02:15:39.916Z,18.00
2022-08-20T02:18:13.621Z,18.00
2022-08-20T02:20:43.189Z,18.00
2022-08-20T02:23:13.148Z,18.00
2022-08-20T02:25:44.725Z,18.00
2022-08-20T02:28:15.075Z,18.00
2022-08-20T02:30:47.000Z,18.00
2022-08-20T02:33:17.340Z,18.00
2022-08-20T02:35:47.982Z,18.00
2022-08-20T02:38:16.810Z,18.00
2022-08-20T02:40:49.016Z,18.00
2022-08-20T02:43:18.360Z,18.00
2022-08-20T02:45:47.989Z,18.00
2022-08-20T02:48:20.883Z,18.00
2022-08-20T02:50:51.107Z,17.90
2022-08-20T02:53:19.329Z,17.90
2022-08-20T02:55:47.325Z,17.90
2022-08-20T02:58:15.730Z,17.90
2022-08-20T03:00:44.664Z,17.90
2022-08-20T03:03:15.317Z,17.90
2022-08-20T03:05:45.182Z,17.90
2022-08-20T03:08:14.802Z,17.90
2022-08-20T03:10:45.144Z,17.90
2022-08-20T03:13:13.781Z,17.90
2022-08-20T03:15:45.122Z,18.00
2022-08-20T03:18:14.574Z,18.00
2022-08-20T03:20:43.904Z,18.00
2022-08-20T03:23:14.546Z,18.00
2022-08-20T03:25:42.594Z,17.90
2022-08-20T03:28:11.523Z,18.00
2022-08-20T03:30:40.748Z,17.90
2022-08-20T03:33:09.194Z,17.90
2022-08-20T03:35:39.501Z,18.00
2022-08-20T03:38:09.132Z,18.00
2022-08-20T03:40:38.883Z,18.00
2022-08-20T03:43:08.675Z,18.00
2022-08-20T03:45:38.163Z,18.00
2022-08-20T03:48:08.595Z,18.00
2022-08-20T03:50:38.168Z,18.00
2022-08-20T03:53:06.220Z,18.00
2022-08-20T03:55:34.339Z,18.00
2022-08-20T03:58:06.287Z,18.00
2022-08-20T04:00:37.077Z,18.00
2022-08-20T04:03:05.762Z,18.00
2022-08-20T04:05:34.386Z,18.00
2022-08-20T04:08:05.272Z,18.00
2022-08-20T04:10:33.430Z,18.00
2022-08-20T04:13:01.710Z,18.00
2022-08-20T04:15:29.801Z,18.00
2022-08-20T04:17:59.817Z,18.00
2022-08-20T04:20:28.116Z,18.00
2022-08-20T04:22:59.333Z,18.00
2022-08-20T04:25:30.045Z,17.90
2022-08-20T04:28:07.296Z,17.90
2022-08-20T04:30:35.692Z,17.90
2022-08-20T04:33:03.841Z,17.90
2022-08-20T04:35:32.402Z,17.90
2022-08-20T04:38:03.259Z,17.90
2022-08-20T04:40:49.936Z,17.90
2022-08-20T04:43:17.905Z,18.00
2022-08-20T04:45:47.161Z,18.00
2022-08-20T04:48:15.509Z,18.00
2022-08-20T04:50:46.971Z,18.00
2022-08-20T04:53:20.711Z,18.00
2022-08-20T04:55:53.409Z,18.00
2022-08-20T04:58:24.608Z,18.10
2022-08-20T05:00:56.379Z,18.10
2022-08-20T05:03:29.538Z,18.10
2022-08-20T05:05:58.013Z,18.10
2022-08-20T05:08:26.824Z,18.10
2022-08-20T05:11:06.782Z,18.20
2022-08-20T05:13:45.726Z,18.20
2022-08-20T05:16:13.686Z,18.20
2022-08-20T05:18:42.590Z,18.20
2022-08-20T05:21:10.517Z,18.20
2022-08-20T05:23:42.925Z,18.30
2022-08-20T05:26:13.048Z,18.30
2022-08-20T05:28:57.458Z,18.30
2022-08-20T05:31:31.863Z,18.30
2022-08-20T05:34:01.743Z,18.40
2022-08-20T05:36:29.820Z,18.40
2022-08-20T05:38:57.825Z,18.30
2022-08-20T05:41:29.517Z,18.40
2022-08-20T05:44:00.064Z,18.40
2022-08-20T05:46:28.296Z,18.50
2022-08-20T05:48:56.208Z,18.50
2022-08-20T05:51:27.898Z,18.60
2022-08-20T05:53:57.447Z,18.70
2022-08-20T05:56:30.848Z,18.70
2022-08-20T05:59:01.297Z,18.90
2022-08-20T06:01:29.389Z,19.00
2022-08-20T06:04:19.799Z,19.10
2022-08-20T06:06:47.886Z,19.20
2022-08-20T06:09:31.346Z,19.30
2022-08-20T06:12:02.916Z,19.50
2022-08-20T06:14:31.512Z,19.60
2022-08-20T06:17:05.562Z,19.70
2022-08-20T06:19:35.004Z,19.80
2022-08-20T06:22:06.801Z,19.90
2022-08-20T06:24:45.957Z,19.90
2022-08-20T06:27:16.799Z,20.10
2022-08-20T06:29:45.307Z,20.20
2022-08-20T06:32:13.242Z,20.20
2022-08-20T06:34:50.423Z,20.40
2022-08-20T06:37:20.885Z,20.50
2022-08-20T06:39:49.071Z,20.70
2022-08-20T06:42:20.636Z,20.80
2022-08-20T06:44:50.043Z,20.90
2022-08-20T06:47:19.055Z,20.90
2022-08-20T06:49:47.703Z,20.90
2022-08-20T06:52:17.288Z,21.10
2022-08-20T06:54:45.530Z,21.10
2022-08-20T06:57:13.569Z,21.40
2022-08-20T06:59:42.930Z,21.80
2022-08-20T07:02:10.833Z,22.20
2022-08-20T07:04:38.899Z,22.60
2022-08-20T07:07:07.270Z,23.10
2022-08-20T07:09:35.337Z,23.70
2022-08-20T07:12:03.794Z,24.40
2022-08-20T07:14:31.763Z,25.00
2022-08-20T07:17:03.592Z,25.20
2022-08-20T07:19:32.252Z,25.30
2022-08-20T07:22:00.215Z,25.20
2022-08-20T07:24:34.967Z,25.10
2022-08-20T07:27:06.256Z,25.10
2022-08-20T07:29:48.154Z,25.20
2022-08-20T07:32:37.016Z,25.30
2022-08-20T07:35:11.434Z,25.60
2022-08-20T07:37:41.402Z,25.50
2022-08-20T07:40:14.549Z,25.40
2022-08-20T07:42:45.704Z,25.40
2022-08-20T07:45:15.814Z,25.50
2022-08-20T07:47:46.308Z,25.40
2022-08-20T07:50:19.156Z,25.20
2022-08-20T07:52:47.363Z,25.20
2022-08-20T07:55:17.465Z,25.00
2022-08-20T07:57:47.569Z,24.60
2022-08-20T08:00:17.522Z,24.10
2022-08-20T08:02:46.817Z,24.10
2022-08-20T08:05:16.203Z,24.00
2022-08-20T08:07:44.360Z,24.00
2022-08-20T08:10:15.219Z,24.00
2022-08-20T08:12:47.516Z,23.90
2022-08-20T08:15:17.901Z,23.80
2022-08-20T08:17:49.704Z,23.50
2022-08-20T08:20:19.208Z,23.30
2022-08-20T08:22:47.384Z,23.20
2022-08-20T08:25:17.087Z,23.10
2022-08-20T08:27:49.277Z,23.10
2022-08-20T08:30:18.003Z,23.10
2022-08-20T08:33:05.102Z,23.10
2022-08-20T08:35:34.093Z,23.20
2022-08-20T08:38:02.522Z,23.20
2022-08-20T08:40:31.966Z,23.10
2022-08-20T08:43:04.127Z,23.10
2022-08-20T08:45:41.315Z,23.00
2022-08-20T08:48:15.204Z,23.00
2022-08-20T08:50:54.063Z,22.90
2022-08-20T08:53:26.014Z,22.70
2022-08-20T08:55:54.087Z,22.90
2022-08-20T08:58:22.108Z,23.10
2022-08-20T09:00:56.311Z,23.30
2022-08-20T09:03:31.036Z,23.60
2022-08-20T09:06:04.471Z,23.80
2022-08-20T09:08:39.177Z,24.00
2022-08-20T09:11:10.533Z,24.10
2022-08-20T09:13:38.614Z,24.20
2022-08-20T09:16:06.798Z,24.40
2022-08-20T09:18:37.168Z,24.60
2022-08-20T09:21:05.456Z,24.70
2022-08-20T09:23:33.612Z,25.00
2022-08-20T09:26:01.726Z,25.60
2022-08-20T09:28:32.163Z,25.70
2022-08-20T09:31:03.275Z,26.00
2022-08-20T09:33:32.435Z,26.20
2022-08-20T09:36:01.725Z,26.30
2022-08-20T09:38:29.740Z,26.80
2022-08-20T09:40:57.658Z,27.30
2022-08-20T09:43:25.690Z,27.40
2022-08-20T09:45:53.606Z,27.50
2022-08-20T09:48:21.585Z,27.70
2022-08-20T09:51:02.025Z,27.90
2022-08-20T09:53:31.363Z,28.00
2022-08-20T09:56:00.170Z,28.40
2022-08-20T09:58:42.693Z,28.70
2022-08-20T10:01:16.593Z,28.70
2022-08-20T10:03:47.979Z,28.70
2022-08-20T10:06:19.720Z,28.90
2022-08-20T10:08:48.268Z,29.00
2022-08-20T10:11:16.607Z,28.90
2022-08-20T10:13:46.039Z,28.70
2022-08-20T10:16:14.123Z,28.50
2022-08-20T10:18:42.149Z,28.00
2022-08-20T10:21:11.573Z,27.70
2022-08-20T10:23:40.856Z,27.50
2022-08-20T10:26:09.319Z,27.40
2022-08-20T10:28:37.332Z,27.60
2022-08-20T10:31:07.228Z,27.80
2022-08-20T10:33:36.248Z,27.90
2022-08-20T10:36:08.344Z,28.10
2022-08-20T10:38:36.316Z,28.10
2022-08-20T10:41:06.244Z,28.00
2022-08-20T10:43:34.241Z,27.90
2022-08-20T10:46:02.486Z,27.90
2022-08-20T10:48:30.739Z,27.70
2022-08-20T10:50:58.752Z,27.70
2022-08-20T10:53:26.752Z,27.90
2022-08-20T10:55:55.471Z,28.40
2022-08-20T10:58:25.186Z,29.10
2022-08-20T11:00:54.226Z,29.70
2022-08-20T11:03:22.212Z,30.20
2022-08-20T11:05:50.353Z,30.70
2022-08-20T11:08:33.247Z,30.80
2022-08-20T11:11:03.237Z,30.80
2022-08-20T11:13:34.617Z,30.80
2022-08-20T11:16:03.687Z,30.70
2022-08-20T11:18:32.991Z,30.60
2022-08-20T11:21:01.497Z,30.60
2022-08-20T11:23:30.425Z,30.30
2022-08-20T11:25:58.924Z,30.10
2022-08-20T11:28:31.974Z,30.10
2022-08-20T11:31:02.274Z,30.10
2022-08-20T11:33:31.956Z,30.10
2022-08-20T11:36:00.112Z,30.10
2022-08-20T11:38:28.131Z,30.10
2022-08-20T11:40:56.055Z,30.50
2022-08-20T11:43:39.434Z,30.80
2022-08-20T11:46:08.890Z,31.00
2022-08-20T11:48:37.092Z,31.10
2022-08-20T11:51:08.379Z,31.30
2022-08-20T11:53:36.376Z,31.50
2022-08-20T11:56:06.749Z,31.90
2022-08-20T11:58:35.104Z,32.30
2022-08-20T12:01:03.051Z,32.20
2022-08-20T12:03:32.374Z,32.00
2022-08-20T12:06:00.301Z,31.80
2022-08-20T12:08:29.432Z,31.60
2022-08-20T12:10:58.463Z,31.30
2022-08-20T12:13:30.861Z,30.90
2022-08-20T12:16:15.020Z,30.30
2022-08-20T12:18:44.313Z,29.70
2022-08-20T12:21:12.385Z,29.20
2022-08-20T12:23:40.435Z,28.70
2022-08-20T12:26:08.393Z,28.30
2022-08-20T12:28:36.304Z,27.90
2022-08-20T12:31:04.401Z,27.50
2022-08-20T12:33:32.551Z,27.30
2022-08-20T12:36:02.267Z,27.20
2022-08-20T12:38:30.213Z,27.10
2022-08-20T12:40:58.166Z,26.90
2022-08-20T12:43:26.234Z,26.70
2022-08-20T12:45:54.596Z,26.70
2022-08-20T12:48:22.683Z,26.60
2022-08-20T12:50:52.737Z,26.60
2022-08-20T12:53:22.097Z,26.60
2022-08-20T12:55:50.232Z,26.50
2022-08-20T12:58:18.220Z,26.30
2022-08-20T13:00:50.659Z,26.10
2022-08-20T13:03:20.270Z,26.00
2022-08-20T13:05:48.855Z,25.90
2022-08-20T13:08:17.940Z,25.90
2022-08-20T13:10:47.746Z,26.00
2022-08-20T13:13:17.701Z,26.00
2022-08-20T13:15:48.666Z,26.00
2022-08-20T13:18:16.678Z,26.00
2022-08-20T13:20:44.857Z,25.90
2022-08-20T13:23:12.872Z,26.00
2022-08-20T13:25:40.806Z,26.10
2022-08-20T13:28:10.098Z,26.20
2022-08-20T13:30:38.800Z,26.30
2022-08-20T13:33:07.047Z,26.30
2022-08-20T13:35:35.115Z,26.30
2022-08-20T13:38:03.158Z,26.20
2022-08-20T13:40:31.132Z,26.30
2022-08-20T13:43:03.167Z,26.30
2022-08-20T13:45:35.912Z,26.40
2022-08-20T13:48:04.666Z,26.50
2022-08-20T13:50:35.465Z,26.70
2022-08-20T13:53:04.327Z,26.70
2022-08-20T13:55:35.348Z,26.90
2022-08-20T13:58:08.732Z,27.10
2022-08-20T14:00:38.310Z,27.30
2022-08-20T14:03:07.878Z,27.50
2022-08-20T14:05:36.102Z,27.50
2022-08-20T14:08:09.927Z,27.70
2022-08-20T14:10:39.028Z,27.80
2022-08-20T14:13:11.148Z,27.80
2022-08-20T14:15:42.705Z,27.60
2022-08-20T14:18:10.687Z,27.50
2022-08-20T14:20:39.037Z,27.60
2022-08-20T14:23:07.307Z,27.60
2022-08-20T14:25:35.837Z,27.60
2022-08-20T14:28:11.488Z,27.60
2022-08-20T14:30:39.974Z,27.60
2022-08-20T14:33:09.533Z,27.40
2022-08-20T14:35:37.742Z,27.40
2022-08-20T14:38:06.119Z,27.40
2022-08-20T14:40:35.780Z,27.30
2022-08-20T14:43:04.183Z,27.00
2022-08-20T14:45:32.647Z,26.60
2022-08-20T14:48:00.870Z,26.20
2022-08-20T14:50:33.309Z,26.00
2022-08-20T14:53:02.171Z,25.80
2022-08-20T14:55:32.451Z,25.70
2022-08-20T14:58:00.588Z,25.60
2022-08-20T15:00:31.088Z,25.40
2022-08-20T15:02:59.394Z,25.20
2022-08-20T15:05:31.932Z,25.20
2022-08-20T15:08:00.123Z,25.20
2022-08-20T15:10:30.411Z,25.10
2022-08-20T15:12:59.217Z,25.10
2022-08-20T15:15:30.464Z,25.10
2022-08-20T15:18:03.300Z,25.10
2022-08-20T15:20:35.163Z,25.10
2022-08-20T15:23:03.894Z,25.10
2022-08-20T15:25:36.491Z,25.10
2022-08-20T15:28:08.256Z,25.10
2022-08-20T15:30:36.674Z,25.10
2022-08-20T15:33:05.267Z,25.10
2022-08-20T15:35:34.880Z,25.10
2022-08-20T15:38:03.223Z,25.10
2022-08-20T15:40:33.591Z,25.10
2022-08-20T15:43:03.704Z,25.00
2022-08-20T15:45:32.176Z,25.00
2022-08-20T15:48:07.920Z,25.00
2022-08-20T15:50:57.541Z,24.90
2022-08-20T15:53:32.169Z,24.70
2022-08-20T15:56:24.173Z,24.60
2022-08-20T15:58:59.110Z,24.50
2022-08-20T16:01:33.823Z,24.40
2022-08-20T16:04:16.248Z,24.30
2022-08-20T16:06:47.819Z,24.30
2022-08-20T16:09:33.984Z,24.30
2022-08-20T16:12:08.708Z,24.30
2022-08-20T16:14:40.175Z,24.40
2022-08-20T16:17:12.345Z,24.50
2022-08-20T16:20:01.818Z,24.60
2022-08-20T16:22:33.039Z,24.60
2022-08-20T16:25:01.345Z,24.60
2022-08-20T16:27:37.018Z,24.60
2022-08-20T16:30:08.549Z,24.60
2022-08-20T16:32:40.955Z,24.60
2022-08-20T16:35:29.831Z,24.50
2022-08-20T16:38:07.758Z,24.50
2022-08-20T16:40:41.419Z,24.50
2022-08-20T16:43:15.115Z,24.50
2022-08-20T16:45:51.112Z,24.50
2022-08-20T16:48:20.684Z,24.50
2022-08-20T16:50:58.762Z,24.50
2022-08-20T16:53:28.891Z,24.50
2022-08-20T16:55:57.674Z,24.40
2022-08-20T16:58:25.810Z,24.50
2022-08-20T17:01:10.969Z,24.50
2022-08-20T17:03:40.605Z,24.40
2022-08-20T17:06:20.488Z,24.40
2022-08-20T17:08:51.609Z,24.40
2022-08-20T17:11:27.054Z,24.40
2022-08-20T17:14:06.579Z,24.40
2022-08-20T17:16:36.804Z,24.40
2022-08-20T17:19:12.613Z,24.40
2022-08-20T17:21:41.674Z,24.40
2022-08-20T17:24:20.310Z,24.40
2022-08-20T17:26:54.021Z,24.30
2022-08-20T17:29:24.860Z,24.20
2022-08-20T17:31:55.485Z,24.20
2022-08-20T17:34:25.974Z,24.10
2022-08-20T17:36:56.946Z,24.10
2022-08-20T17:39:28.653Z,24.10
2022-08-20T17:42:06.875Z,23.90
2022-08-20T17:44:40.298Z,23.80
2022-08-20T17:47:13.785Z,23.70
2022-08-20T17:50:01.189Z,23.50
2022-08-20T17:52:35.489Z,23.40
2022-08-20T17:55:06.935Z,23.30
2022-08-20T17:57:39.351Z,23.30
2022-08-20T18:00:12.887Z,23.20
2022-08-20T18:02:41.229Z,23.10
2022-08-20T18:05:15.227Z,23.00
2022-08-20T18:07:52.968Z,22.90
2022-08-20T18:10:24.892Z,22.90
2022-08-20T18:12:59.745Z,22.80
2022-08-20T18:15:32.056Z,22.80
2022-08-20T18:18:14.181Z,22.70
2022-08-20T18:21:06.961Z,22.60
2022-08-20T18:23:41.210Z,22.60
2022-08-20T18:26:15.221Z,22.60
2022-08-20T18:28:46.810Z,22.50
2022-08-20T18:31:27.850Z,22.50
2022-08-20T18:33:56.709Z,22.50
2022-08-20T18:36:28.037Z,22.50
2022-08-20T18:39:03.701Z,22.40
2022-08-20T18:41:35.920Z,22.40
2022-08-20T18:44:06.950Z,22.40
2022-08-20T18:46:38.003Z,22.40
2022-08-20T18:49:08.585Z,22.30
2022-08-20T18:51:41.916Z,22.30
2022-08-20T18:54:10.255Z,22.20
2022-08-20T18:56:43.161Z,22.10
2022-08-20T18:59:16.028Z,22.00
2022-08-20T19:01:46.879Z,21.90
2022-08-20T19:04:28.170Z,21.90
2022-08-20T19:07:00.030Z,21.90
2022-08-20T19:09:50.605Z,21.80
2022-08-20T19:12:42.383Z,21.80
2022-08-20T19:15:17.042Z,21.70
2022-08-20T19:17:55.649Z,21.70
2022-08-20T19:20:27.590Z,21.60
2022-08-20T19:23:00.043Z,21.60
2022-08-20T19:25:32.189Z,21.50
2022-08-20T19:28:05.692Z,21.50
2022-08-20T19:30:37.222Z,21.40
2022-08-20T19:33:05.786Z,21.40
2022-08-20T19:35:34.026Z,21.40
2022-08-20T19:38:02.431Z,21.40
2022-08-20T19:40:38.859Z,21.30
2022-08-20T19:43:14.926Z,21.30
2022-08-20T19:45:47.655Z,21.30
2022-08-20T19:48:27.807Z,21.20
2022-08-20T19:51:03.222Z,21.30
2022-08-20T19:53:33.978Z,21.20
2022-08-20T19:56:04.180Z,21.20
2022-08-20T19:58:34.868Z,21.10
2022-08-20T20:01:04.915Z,21.20
2022-08-20T20:03:35.222Z,21.20
2022-08-20T20:06:15.137Z,21.20
2022-08-20T20:08:51.382Z,21.20
2022-08-20T20:11:25.459Z,21.20
2022-08-20T20:13:55.388Z,21.10
2022-08-20T20:16:23.823Z,21.10
2022-08-20T20:19:15.618Z,21.10
2022-08-20T20:21:45.063Z,21.00
2022-08-20T20:24:23.405Z,21.00
2022-08-20T20:26:52.034Z,21.00
2022-08-20T20:29:27.638Z,21.00
2022-08-20T20:31:59.442Z,20.90
2022-08-20T20:34:29.562Z,20.90
2022-08-20T20:37:06.730Z,20.80
2022-08-20T20:39:37.147Z,21.00
2022-08-20T20:42:08.160Z,20.90
2022-08-20T20:44:39.750Z,20.90
2022-08-20T20:47:17.738Z,20.90
2022-08-20T20:49:50.617Z,20.90
2022-08-20T20:52:23.759Z,20.90
2022-08-20T20:54:53.314Z,21.00
2022-08-20T20:57:36.351Z,21.00
2022-08-20T21:00:13.165Z,21.00
2022-08-20T21:02:41.639Z,21.00
2022-08-20T21:05:11.543Z,20.90
2022-08-20T21:07:50.608Z,20.90
2022-08-20T21:10:20.454Z,20.80
2022-08-20T21:12:56.752Z,20.80
2022-08-20T21:15:27.775Z,20.80
2022-08-20T21:17:58.975Z,20.80
2022-08-20T21:20:27.795Z,20.80
2022-08-20T21:22:57.314Z,20.80
2022-08-20T21:25:26.354Z,20.80
2022-08-20T21:27:55.767Z,20.90
2022-08-20T21:30:26.288Z,20.80
2022-08-20T21:32:54.433Z,20.80
2022-08-20T21:35:22.825Z,20.90
2022-08-20T21:37:50.805Z,20.90
2022-08-20T21:40:21.680Z,20.80
2022-08-20T21:42:55.424Z,20.90
2022-08-20T21:45:24.048Z,20.90
2022-08-20T21:47:58.174Z,20.80
2022-08-20T21:50:26.723Z,20.80
2022-08-20T21:52:59.935Z,20.70
2022-08-20T21:55:30.072Z,20.70
2022-08-20T21:57:59.185Z,20.60
2022-08-20T22:00:51.042Z,20.60
2022-08-20T22:03:21.270Z,20.60
2022-08-20T22:05:50.162Z,20.70
2022-08-20T22:08:18.934Z,20.70
2022-08-20T22:10:47.263Z,20.70
2022-08-20T22:13:16.486Z,20.70
2022-08-20T22:15:44.417Z,20.70
2022-08-20T22:18:12.403Z,20.70
2022-08-20T22:20:43.683Z,20.80
2022-08-20T22:23:11.746Z,20.80
2022-08-20T22:25:40.891Z,20.80
2022-08-20T22:28:09.058Z,20.70
2022-08-20T22:30:41.719Z,20.80
2022-08-20T22:33:14.524Z,20.70
2022-08-20T22:35:47.417Z,20.60
2022-08-20T22:38:15.482Z,20.60
2022-08-20T22:40:43.762Z,20.50
2022-08-20T22:43:12.488Z,20.40
2022-08-20T22:45:42.493Z,20.30
2022-08-20T22:48:12.073Z,20.30
2022-08-20T22:50:40.092Z,20.10
2022-08-20T22:53:09.606Z,20.00
2022-08-20T22:55:38.432Z,19.80
2022-08-20T22:58:07.399Z,19.80
2022-08-20T23:00:36.087Z,19.70
2022-08-20T23:03:05.130Z,19.60
2022-08-20T23:05:36.321Z,19.60
2022-08-20T23:08:07.139Z,19.50
2022-08-20T23:10:38.116Z,19.50
2022-08-20T23:13:07.137Z,19.40
2022-08-20T23:15:41.512Z,19.40
2022-08-20T23:18:15.873Z,19.40
2022-08-20T23:20:46.933Z,19.40
2022-08-20T23:23:14.889Z,19.30
2022-08-20T23:25:44.375Z,19.40
2022-08-20T23:28:12.618Z,19.40
2022-08-20T23:30:40.560Z,19.40
2022-08-20T23:33:08.495Z,19.40
2022-08-20T23:35:40.126Z,19.30
2022-08-20T23:38:08.766Z,19.30
2022-08-20T23:40:36.853Z,19.30
2022-08-20T23:43:06.573Z,19.40
2022-08-20T23:45:35.122Z,19.30
2022-08-20T23:48:08.069Z,19.30
2022-08-20T23:50:36.819Z,19.30
2022-08-20T23:53:05.679Z,19.30
2022-08-20T23:55:34.007Z,19.30
2022-08-20T23:58:02.062Z,19.20
